06D

Rolla Municipal Airport

Rolla, North Dakota, USA
METAR K06D 211555Z AUTO 18007KT 10SM OVC014 M16/M18 A2991 RMK AO2
Observed Flight Rules
Jan-21 @ 15:55 UTC (19 minutes ago) Marginal Visual Flight Rules
Wind Visibility Clouds
180° at 7 knots 10 miles
  • Overcast at 1,400' AGL
Temperatures Readings
Current -16°C / 3°F
Dewpoint -18°C / -0°F
Humidity 85%
Altimeter 29.91" Hg
Pressure 1012.92 hPa
Elevation 556
METAR K06D 211555Z AUTO 18007KT 10SM OVC014 M16/M18 A2991 RMK AO2
Observed Flight Rules
Jan-21 @ 15:55 UTC
(19 minutes ago)
MVFR
Wind Visibility
180° at 7 knots 10 miles
Clouds
  • Overcast at 1,400' AGL
Temperature Dewpoint
-16°C / 3°F -18°C / -0°F
Humidity Altimeter Pressure
85% 29.91" Hg 1012.92 hPa